Wallace, Canada
Current Conditions -  °F | °C
As of 5:00 PM on Sunday 21 Dec 2014 (Local Time) from CYYG Reporting Station
Rain Showers Rain Showers  
Wind Chill: 20°   Ceiling: 1800
Heat Index: 27°   Visibility: 15mi
Dew Point: 21°   Wind: 6mph
Humidity: 80%   Direction: 60°ENE
Pressure: 30.39"   Gusts: NA
Location:  45.8°N, 63.47°W
Report Text: CYYG 212100Z 06005KT 020V120 15SM VCSH OVC018 M03/M06 A3039 RMK SC8 SLP294
Loading
Personal Weather Stations






























Interactive Weather Map New forecast layout! Learn more

10-Day Weather Forecast

Advertisements
Track Severe Weather on mobile